»·PEaware :: N77TN KSJC-KSAN

N77TN :: KSJC-KSAN

FLIGHT INFORMATION

Flight Status: Arrived
Operator: Privately registered:
United States
More flights under this callsign
Pilot: Martin A. (6413)
Aircraft: PIPER PA-44 SEMINOLE
(PA44)
More flights by this aircraft type
Origin: KSJC Mineta San Jose Intl
United States
Destination: KSAN San Diego Intl-Lindbergh
United States
More flights between these airports :: More routes between these airports
Route: +SNS AVE FLW VTU V208 OCN V23 MZB
File this flight plan on PilotEdge
Remarks:
Altitude:
(Current/Filed)
11,000ft
Speed:
(Current/Filed)
160kts
Departed: 06-Dec-20 01:56 PM
Arrived: 06-Dec-20 04:54 PM
Distance/Time
Traveled:
363nm/2:58
Distance/Time
To Go:
Arrived

Flight Plot

Page will automatically refresh every two minutes.

Flight plan parsing failed; only flown route is shown


Map Options




Map Legend


Flown Route
Filed Route
Departure Airport
Arrival Airport
Navaid (VOR, NDB)
Fix

Horizontal Profiles

Position Reports

Time Latitude Longitude Heading Altitude Ground
Speed
06-Dec-20 13:31 37.362448 -121.935458 227 55ft 0kts
06-Dec-20 13:32 37.362448 -121.935458 227 55ft 0kts
06-Dec-20 13:33 37.362448 -121.935458 227 55ft 0kts
06-Dec-20 13:34 37.362448 -121.935458 227 55ft 0kts
06-Dec-20 13:35 37.362448 -121.935458 227 55ft 0kts
06-Dec-20 13:36 37.362448 -121.935458 227 55ft 0kts
06-Dec-20 13:37 37.362448 -121.935458 227 55ft 0kts
06-Dec-20 13:38 37.362447 -121.935458 227 55ft 0kts
06-Dec-20 13:39 37.362447 -121.935458 227 55ft 0kts
06-Dec-20 13:40 37.362447 -121.935458 227 55ft 0kts
06-Dec-20 13:41 37.362447 -121.935458 227 55ft 0kts
06-Dec-20 13:42 37.362447 -121.935458 227 55ft 0kts
06-Dec-20 13:43 37.362447 -121.935458 227 55ft 0kts
06-Dec-20 13:44 37.362447 -121.935458 227 55ft 0kts
06-Dec-20 13:45 37.362447 -121.935459 227 55ft 0kts
06-Dec-20 13:46 37.362447 -121.935459 227 55ft 0kts
06-Dec-20 13:47 37.362447 -121.935459 227 55ft 0kts
06-Dec-20 13:48 37.362447 -121.935459 227 55ft 0kts
06-Dec-20 13:49 37.362447 -121.935459 227 55ft 0kts
06-Dec-20 13:50 37.362536 -121.934862 125 55ft 7kts
06-Dec-20 13:51 37.361306 -121.932262 69 55ft 12kts
06-Dec-20 13:52 37.358430 -121.927037 137 55ft 29kts
06-Dec-20 13:53 37.352956 -121.921076 139 56ft 21kts
06-Dec-20 13:54 37.352211 -121.920160 133 56ft 3kts
06-Dec-20 13:55 37.354938 -121.921394 316 58ft 73kts
06-Dec-20 13:56 37.378000 -121.945003 304 1209ft 112kts
06-Dec-20 13:57 37.363697 -121.972251 191 2163ft 118kts
06-Dec-20 13:58 37.331130 -121.981142 194 3113ft 119kts
06-Dec-20 13:59 37.299318 -121.990461 194 4118ft 115kts
06-Dec-20 14:00 37.268583 -121.999466 194 5125ft 111kts
06-Dec-20 14:01 37.238883 -122.008841 194 6128ft 108kts
06-Dec-20 14:02 37.210443 -122.017525 194 7090ft 101kts
06-Dec-20 14:03 37.184860 -122.011250 162 8083ft 89kts
06-Dec-20 14:04 37.164587 -121.994390 150 8697ft 93kts
06-Dec-20 14:05 37.137971 -121.974642 150 9119ft 124kts
06-Dec-20 14:06 37.108076 -121.950598 151 9666ft 126kts
06-Dec-20 14:07 37.078607 -121.927438 149 10261ft 124kts
06-Dec-20 14:08 37.049216 -121.904418 149 10856ft 125kts
06-Dec-20 14:09 37.017485 -121.879469 149 10996ft 142kts
06-Dec-20 14:10 36.983736 -121.853008 149 10986ft 144kts
06-Dec-20 14:11 36.949755 -121.826351 149 10976ft 144kts
06-Dec-20 14:12 36.915548 -121.799558 149 10962ft 145kts
06-Dec-20 14:13 36.881103 -121.772620 149 10957ft 145kts
06-Dec-20 14:14 36.846800 -121.745805 149 10955ft 145kts
06-Dec-20 14:15 36.812461 -121.718979 149 10957ft 145kts
06-Dec-20 14:16 36.778013 -121.692084 149 10954ft 145kts
06-Dec-20 14:17 36.743659 -121.665317 149 10953ft 145kts
06-Dec-20 14:18 36.709257 -121.638527 149 10952ft 145kts
06-Dec-20 14:19 36.674878 -121.611729 148 10952ft 146kts
06-Dec-20 14:20 36.645636 -121.577015 126 10950ft 147kts
06-Dec-20 14:21 36.622706 -121.534735 128 10950ft 147kts
06-Dec-20 14:22 36.597175 -121.494950 128 10951ft 147kts
06-Dec-20 14:23 36.572651 -121.453980 128 10955ft 147kts
06-Dec-20 14:24 36.547597 -121.413689 128 10960ft 147kts
06-Dec-20 14:25 36.522766 -121.373056 128 10964ft 147kts
06-Dec-20 14:27 36.497672 -121.332410 128 10969ft 147kts
06-Dec-20 14:28 36.472669 -121.291816 128 10972ft 147kts
06-Dec-20 14:29 36.447691 -121.251249 128 10970ft 147kts
06-Dec-20 14:30 36.422632 -121.210833 128 10967ft 147kts
06-Dec-20 14:31 36.397650 -121.170346 128 10961ft 147kts
06-Dec-20 14:32 36.372517 -121.129824 128 10966ft 147kts
06-Dec-20 14:33 36.347464 -121.089409 128 10963ft 147kts
06-Dec-20 14:34 36.322402 -121.049066 128 10966ft 147kts
06-Dec-20 14:35 36.297310 -121.008644 128 10969ft 148kts
06-Dec-20 14:36 36.272213 -120.968338 129 10966ft 147kts
06-Dec-20 14:37 36.247184 -120.928126 128 10940ft 147kts
06-Dec-20 14:38 36.222117 -120.887996 128 10935ft 147kts
06-Dec-20 14:39 36.197089 -120.847874 128 10937ft 147kts
06-Dec-20 14:40 36.172068 -120.807845 128 10934ft 147kts
06-Dec-20 14:41 36.146909 -120.767721 128 10926ft 147kts
06-Dec-20 14:41 36.126072 -120.734342 129 10931ft 148kts
06-Dec-20 14:43 36.096731 -120.687756 130 10976ft 146kts
06-Dec-20 14:43 36.076128 -120.654807 130 10959ft 145kts
06-Dec-20 14:45 36.047037 -120.608625 130 11004ft 146kts
06-Dec-20 14:46 36.022070 -120.568921 130 10994ft 146kts
06-Dec-20 14:46 36.001199 -120.535835 130 11014ft 146kts
06-Dec-20 14:48 35.971954 -120.489475 131 11020ft 146kts
06-Dec-20 14:48 35.951068 -120.456381 130 11020ft 146kts
06-Dec-20 14:50 35.921801 -120.410176 130 11008ft 146kts
06-Dec-20 14:50 35.900871 -120.377068 131 11017ft 146kts
06-Dec-20 14:51 35.875774 -120.337494 130 11006ft 146kts
06-Dec-20 14:52 35.850337 -120.297372 130 10986ft 149kts
06-Dec-20 14:53 35.824545 -120.256821 130 10994ft 150kts
06-Dec-20 14:54 35.798826 -120.216347 130 10994ft 150kts
06-Dec-20 14:55 35.773135 -120.176076 130 10967ft 149kts
06-Dec-20 14:56 35.747549 -120.135837 130 10957ft 149kts
06-Dec-20 14:57 35.721891 -120.095732 130 10934ft 148kts
06-Dec-20 14:58 35.696274 -120.055628 130 10940ft 149kts
06-Dec-20 14:59 35.670586 -120.015471 130 10941ft 149kts
06-Dec-20 15:00 35.643244 -119.977716 153 10942ft 146kts
06-Dec-20 15:01 35.604208 -119.968359 177 10946ft 143kts
06-Dec-20 15:02 35.564605 -119.962176 170 10945ft 144kts
06-Dec-20 15:03 35.525220 -119.953386 173 10942ft 143kts
06-Dec-20 15:04 35.485665 -119.945627 171 10926ft 143kts
06-Dec-20 15:05 35.446334 -119.937434 172 10929ft 143kts
06-Dec-20 15:06 35.406835 -119.929422 171 10945ft 144kts
06-Dec-20 15:07 35.367165 -119.921309 172 10966ft 144kts
06-Dec-20 15:08 35.327519 -119.913226 172 10963ft 144kts
06-Dec-20 15:09 35.287905 -119.905156 172 10958ft 144kts
06-Dec-20 15:10 35.248231 -119.897080 172 10954ft 144kts
06-Dec-20 15:11 35.208623 -119.888958 174 10951ft 144kts
06-Dec-20 15:12 35.167747 -119.880866 171 10947ft 153kts
06-Dec-20 15:13 35.125241 -119.872020 172 10974ft 156kts
06-Dec-20 15:14 35.083339 -119.858972 149 10982ft 156kts
06-Dec-20 15:15 35.048653 -119.827500 141 10949ft 155kts
06-Dec-20 15:16 35.012830 -119.798113 145 10936ft 155kts
06-Dec-20 15:17 34.977568 -119.767668 143 10941ft 155kts
06-Dec-20 15:18 34.941758 -119.737945 143 10958ft 155kts
06-Dec-20 15:19 34.906233 -119.707647 142 10977ft 155kts
06-Dec-20 15:21 34.864746 -119.672969 142 10990ft 155kts
06-Dec-20 15:21 34.835059 -119.647917 142 11006ft 156kts
06-Dec-20 15:22 34.799236 -119.617909 142 11003ft 155kts
06-Dec-20 15:23 34.763608 -119.587999 142 11021ft 156kts
06-Dec-20 15:24 34.727737 -119.557918 142 11026ft 156kts
06-Dec-20 15:25 34.692068 -119.528100 142 10996ft 155kts
06-Dec-20 15:26 34.656610 -119.498408 142 10954ft 154kts
06-Dec-20 15:27 34.621017 -119.468738 142 10982ft 155kts
06-Dec-20 15:28 34.585414 -119.438984 142 10967ft 155kts
06-Dec-20 15:29 34.549853 -119.409361 142 10968ft 154kts
06-Dec-20 15:30 34.514394 -119.379843 142 10951ft 154kts
06-Dec-20 15:31 34.478692 -119.350118 143 11000ft 156kts
06-Dec-20 15:32 34.443492 -119.320929 142 10916ft 153kts
06-Dec-20 15:33 34.408065 -119.291496 142 10932ft 154kts
06-Dec-20 15:34 34.372597 -119.262100 142 10942ft 154kts
06-Dec-20 15:35 34.337087 -119.232669 142 10944ft 154kts
06-Dec-20 15:36 34.301673 -119.203391 142 10941ft 154kts
06-Dec-20 15:37 34.266085 -119.173982 142 10939ft 154kts
06-Dec-20 15:38 34.230551 -119.144647 142 10944ft 154kts
06-Dec-20 15:39 34.195046 -119.115348 142 10947ft 154kts
06-Dec-20 15:40 34.159647 -119.086193 142 10950ft 153kts
06-Dec-20 15:41 34.124296 -119.057096 142 10962ft 153kts
06-Dec-20 15:42 34.083382 -119.044411 177 10945ft 154kts
06-Dec-20 15:43 34.040460 -119.042323 173 10944ft 154kts
06-Dec-20 15:44 33.997535 -119.036863 175 10945ft 154kts
06-Dec-20 15:45 33.954575 -119.032745 174 10945ft 154kts
06-Dec-20 15:46 33.911672 -119.028131 175 10945ft 155kts
06-Dec-20 15:47 33.868741 -119.023656 174 10945ft 155kts
06-Dec-20 15:48 33.825801 -119.019175 175 10945ft 155kts
06-Dec-20 15:49 33.784191 -119.008594 145 10945ft 156kts
06-Dec-20 15:50 33.757320 -118.968508 129 10946ft 149kts
06-Dec-20 15:51 33.732823 -118.931394 135 10946ft 135kts
06-Dec-20 15:52 33.709160 -118.897973 126 10945ft 128kts
06-Dec-20 15:53 33.686107 -118.864231 124 10945ft 134kts
06-Dec-20 15:54 33.660887 -118.828267 124 10945ft 144kts
06-Dec-20 15:55 33.634973 -118.791006 124 10947ft 145kts
06-Dec-20 15:56 33.608954 -118.753689 124 10946ft 145kts
06-Dec-20 15:57 33.582908 -118.716376 124 10946ft 145kts
06-Dec-20 15:58 33.556877 -118.679079 126 10946ft 145kts
06-Dec-20 15:59 33.530806 -118.641991 128 10946ft 145kts
06-Dec-20 16:00 33.504964 -118.604848 128 10946ft 145kts
06-Dec-20 16:01 33.478946 -118.567830 128 10946ft 145kts
06-Dec-20 16:02 33.452971 -118.530744 128 10972ft 145kts
06-Dec-20 16:03 33.426973 -118.493750 128 10969ft 145kts
06-Dec-20 16:04 33.401016 -118.456788 128 10950ft 145kts
06-Dec-20 16:05 33.375783 -118.419123 115 10960ft 144kts
06-Dec-20 16:06 33.368149 -118.372797 92 10951ft 142kts
06-Dec-20 16:07 33.363087 -118.325614 99 10969ft 143kts
06-Dec-20 16:08 33.356467 -118.278632 95 10960ft 143kts
06-Dec-20 16:09 33.350504 -118.231612 97 10954ft 143kts
06-Dec-20 16:10 33.344239 -118.184700 96 10951ft 143kts
06-Dec-20 16:11 33.338069 -118.137727 97 10949ft 143kts
06-Dec-20 16:12 33.331831 -118.090736 96 10948ft 143kts
06-Dec-20 16:13 33.325598 -118.043809 97 10948ft 143kts
06-Dec-20 16:14 33.319336 -117.996819 97 10947ft 143kts
06-Dec-20 16:15 33.313070 -117.949928 97 10947ft 143kts
06-Dec-20 16:16 33.306757 -117.902872 97 10947ft 143kts
06-Dec-20 16:17 33.300469 -117.856087 97 10948ft 141kts
06-Dec-20 16:18 33.294285 -117.810222 97 10947ft 139kts
06-Dec-20 16:19 33.288040 -117.764041 97 10947ft 141kts
06-Dec-20 16:20 33.281781 -117.717984 97 10946ft 139kts
06-Dec-20 16:21 33.273927 -117.672051 120 10944ft 143kts
06-Dec-20 16:22 33.239659 -117.647706 143 10944ft 145kts
06-Dec-20 16:24 33.208690 -117.616983 140 10945ft 145kts
06-Dec-20 16:25 33.176550 -117.587639 140 10946ft 145kts
06-Dec-20 16:26 33.144582 -117.558215 140 10946ft 145kts
06-Dec-20 16:27 33.112708 -117.528796 141 10946ft 145kts
06-Dec-20 16:28 33.080753 -117.499340 141 10946ft 145kts
06-Dec-20 16:29 33.048682 -117.469841 140 10946ft 145kts
06-Dec-20 16:30 33.016776 -117.440499 141 10947ft 145kts
06-Dec-20 16:31 32.983873 -117.410263 141 9971ft 147kts
06-Dec-20 16:32 32.951543 -117.380553 140 8950ft 144kts
06-Dec-20 16:33 32.921629 -117.353102 141 7742ft 133kts
06-Dec-20 16:34 32.893225 -117.327069 141 6945ft 125kts
06-Dec-20 16:35 32.863197 -117.299560 141 6952ft 140kts
06-Dec-20 16:36 32.833941 -117.267966 121 6599ft 146kts
06-Dec-20 16:37 32.817594 -117.224008 110 5604ft 145kts
06-Dec-20 16:37 32.806363 -117.187441 110 5094ft 138kts
06-Dec-20 16:39 32.791097 -117.137635 110 4990ft 139kts
06-Dec-20 16:39 32.779997 -117.101667 110 4991ft 139kts
06-Dec-20 16:41 32.764453 -117.051407 110 4988ft 139kts
06-Dec-20 16:41 32.753308 -117.015330 110 4992ft 139kts
06-Dec-20 16:43 32.737790 -116.965086 110 4984ft 138kts
06-Dec-20 16:43 32.726630 -116.929047 110 4993ft 139kts
06-Dec-20 16:45 32.711116 -116.878806 110 4978ft 138kts
06-Dec-20 16:46 32.686225 -116.890761 260 4552ft 149kts
06-Dec-20 16:46 32.685505 -116.931839 271 4105ft 152kts
06-Dec-20 16:48 32.689400 -116.991679 278 3331ft 154kts
06-Dec-20 16:48 32.695591 -117.033542 283 2975ft 152kts
06-Dec-20 16:50 32.708013 -117.089096 287 2103ft 140kts
06-Dec-20 16:50 32.716770 -117.121508 289 1232ft 110kts
06-Dec-20 16:51 32.724870 -117.153991 284 642ft 96kts
06-Dec-20 16:52 32.732060 -117.183503 284 16ft 64kts
06-Dec-20 16:53 32.734115 -117.187924 57 13ft 7kts
06-Dec-20 16:54 32.732632 -117.181048 105 15ft 14kts
06-Dec-20 16:55 32.733984 -117.178713 141 14ft 0kts

Navigation Log

Ident Type
Flight plan parsing failed, navigation log unavailable